sensor_id;sensor_type;location;lat;lon;timestamp;P1;durP1;ratioP1;P2;durP2;ratioP2
39822;SDS011;25499;53.958;10.970;2023-10-09T06:04:55;5.78;;;2.88;;
39822;SDS011;25499;53.958;10.970;2023-10-09T06:07:22;4.43;;;2.97;;
39822;SDS011;25499;53.958;10.970;2023-10-09T06:10:06;7.82;;;2.70;;
39822;SDS011;25499;53.958;10.970;2023-10-09T06:12:45;5.15;;;2.85;;
39822;SDS011;25499;53.958;10.970;2023-10-09T06:15:21;7.30;;;2.85;;
39822;SDS011;25499;53.958;10.970;2023-10-09T06:18:02;5.38;;;2.88;;
39822;SDS011;25499;53.958;10.970;2023-10-09T06:20:52;3.67;;;2.33;;
39822;SDS011;25499;53.958;10.970;2023-10-09T06:23:55;6.60;;;2.47;;
39822;SDS011;25499;53.958;10.970;2023-10-09T06:26:39;5.75;;;2.47;;
39822;SDS011;25499;53.958;10.970;2023-10-09T06:29:19;5.57;;;2.93;;
39822;SDS011;25499;53.958;10.970;2023-10-09T06:32:01;5.25;;;2.55;;
39822;SDS011;25499;53.958;10.970;2023-10-09T06:34:43;5.88;;;2.42;;
39822;SDS011;25499;53.958;10.970;2023-10-09T06:37:13;4.32;;;2.30;;
39822;SDS011;25499;53.958;10.970;2023-10-09T06:40:00;5.07;;;2.05;;
39822;SDS011;25499;53.958;10.970;2023-10-09T06:42:56;4.07;;;2.25;;
39822;SDS011;25499;53.958;10.970;2023-10-09T06:45:23;4.00;;;2.00;;
39822;SDS011;25499;53.958;10.970;2023-10-09T06:47:58;6.25;;;2.10;;
39822;SDS011;25499;53.958;10.970;2023-10-09T06:50:34;6.22;;;2.42;;
39822;SDS011;25499;53.958;10.970;2023-10-09T06:53:16;4.28;;;2.05;;
39822;SDS011;25499;53.958;10.970;2023-10-09T06:55:50;4.97;;;2.15;;
39822;SDS011;25499;53.958;10.970;2023-10-09T06:58:17;5.20;;;2.10;;
39822;SDS011;25499;53.958;10.970;2023-10-09T07:00:51;6.30;;;2.05;;
39822;SDS011;25499;53.958;10.970;2023-10-09T07:03:19;7.45;;;2.35;;
39822;SDS011;25499;53.958;10.970;2023-10-09T07:06:02;5.05;;;2.20;;
39822;SDS011;25499;53.958;10.970;2023-10-09T07:08:36;3.88;;;1.95;;
39822;SDS011;25499;53.958;10.970;2023-10-09T07:11:23;3.10;;;2.08;;
39822;SDS011;25499;53.958;10.970;2023-10-09T07:14:03;3.97;;;2.08;;
39822;SDS011;25499;53.958;10.970;2023-10-09T07:16:32;4.32;;;2.08;;
39822;SDS011;25499;53.958;10.970;2023-10-09T07:19:03;3.42;;;2.17;;
39822;SDS011;25499;53.958;10.970;2023-10-09T07:21:50;5.60;;;2.20;;
39822;SDS011;25499;53.958;10.970;2023-10-09T07:24:20;5.65;;;1.77;;
39822;SDS011;25499;53.958;10.970;2023-10-09T07:26:50;8.18;;;1.80;;
39822;SDS011;25499;53.958;10.970;2023-10-09T07:29:18;5.53;;;1.90;;
39822;SDS011;25499;53.958;10.970;2023-10-09T07:31:48;4.07;;;1.75;;
39822;SDS011;25499;53.958;10.970;2023-10-09T07:34:22;2.33;;;1.40;;
39822;SDS011;25499;53.958;10.970;2023-10-09T07:37:18;5.97;;;1.77;;
39822;SDS011;25499;53.958;10.970;2023-10-09T07:39:49;3.92;;;1.67;;
39822;SDS011;25499;53.958;10.970;2023-10-09T07:42:22;5.10;;;1.98;;
39822;SDS011;25499;53.958;10.970;2023-10-09T07:45:03;4.35;;;1.52;;
39822;SDS011;25499;53.958;10.970;2023-10-09T07:47:57;4.13;;;1.80;;
39822;SDS011;25499;53.958;10.970;2023-10-09T07:50:28;5.10;;;1.85;;
39822;SDS011;25499;53.958;10.970;2023-10-09T07:53:03;5.70;;;1.70;;
39822;SDS011;25499;53.958;10.970;2023-10-09T07:55:44;3.22;;;1.50;;
39822;SDS011;25499;53.958;10.970;2023-10-09T07:58:19;4.80;;;1.70;;
39822;SDS011;25499;53.958;10.970;2023-10-09T08:00:51;6.00;;;1.70;;
39822;SDS011;25499;53.958;10.970;2023-10-09T08:03:41;2.25;;;1.40;;
39822;SDS011;25499;53.958;10.970;2023-10-09T08:06:11;4.05;;;1.83;;
39822;SDS011;25499;53.958;10.970;2023-10-09T08:08:55;4.13;;;1.65;;
39822;SDS011;25499;53.958;10.970;2023-10-09T08:14:25;5.30;;;1.80;;
39822;SDS011;25499;53.958;10.970;2023-10-09T08:17:10;4.82;;;1.63;;
39822;SDS011;25499;53.958;10.970;2023-10-09T08:19:41;4.20;;;1.85;;
39822;SDS011;25499;53.958;10.970;2023-10-09T08:22:26;5.28;;;1.63;;
39822;SDS011;25499;53.958;10.970;2023-10-09T08:25:08;3.47;;;1.90;;
39822;SDS011;25499;53.958;10.970;2023-10-09T08:27:53;4.20;;;2.10;;
39822;SDS011;25499;53.958;10.970;2023-10-09T08:30:24;7.30;;;2.35;;
39822;SDS011;25499;53.958;10.970;2023-10-09T08:32:53;4.53;;;2.10;;
39822;SDS011;25499;53.958;10.970;2023-10-09T08:35:27;5.70;;;2.15;;
39822;SDS011;25499;53.958;10.970;2023-10-09T08:37:55;5.78;;;2.17;;
39822;SDS011;25499;53.958;10.970;2023-10-09T08:40:27;3.97;;;2.20;;
39822;SDS011;25499;53.958;10.970;2023-10-09T08:43:01;3.88;;;2.38;;
39822;SDS011;25499;53.958;10.970;2023-10-09T08:45:36;5.10;;;2.47;;
39822;SDS011;25499;53.958;10.970;2023-10-09T08:48:06;4.80;;;2.10;;
39822;SDS011;25499;53.958;10.970;2023-10-09T08:50:37;3.95;;;2.08;;
39822;SDS011;25499;53.958;10.970;2023-10-09T08:53:05;4.82;;;2.53;;
39822;SDS011;25499;53.958;10.970;2023-10-09T08:55:32;5.78;;;2.67;;
39822;SDS011;25499;53.958;10.970;2023-10-09T08:58:00;3.63;;;2.10;;
39822;SDS011;25499;53.958;10.970;2023-10-09T09:00:31;4.90;;;2.63;;
39822;SDS011;25499;53.958;10.970;2023-10-09T09:02:59;5.35;;;2.35;;
39822;SDS011;25499;53.958;10.970;2023-10-09T09:05:26;6.70;;;2.65;;
39822;SDS011;25499;53.958;10.970;2023-10-09T09:07:54;6.10;;;2.78;;
39822;SDS011;25499;53.958;10.970;2023-10-09T09:10:27;7.80;;;3.13;;
39822;SDS011;25499;53.958;10.970;2023-10-09T09:13:02;7.13;;;2.72;;
39822;SDS011;25499;53.958;10.970;2023-10-09T09:15:29;5.85;;;2.70;;
39822;SDS011;25499;53.958;10.970;2023-10-09T09:18:03;3.90;;;2.60;;
39822;SDS011;25499;53.958;10.970;2023-10-09T09:20:32;6.30;;;2.78;;
39822;SDS011;25499;53.958;10.970;2023-10-09T09:23:02;6.90;;;3.35;;
39822;SDS011;25499;53.958;10.970;2023-10-09T09:25:39;7.38;;;3.50;;
39822;SDS011;25499;53.958;10.970;2023-10-09T09:28:12;6.60;;;3.75;;
39822;SDS011;25499;53.958;10.970;2023-10-09T09:30:45;6.13;;;3.15;;
39822;SDS011;25499;53.958;10.970;2023-10-09T09:35:58;7.18;;;3.40;;
39822;SDS011;25499;53.958;10.970;2023-10-09T09:38:27;5.75;;;3.40;;
39822;SDS011;25499;53.958;10.970;2023-10-09T09:41:00;6.43;;;3.80;;
39822;SDS011;25499;53.958;10.970;2023-10-09T09:43:34;7.00;;;3.33;;
39822;SDS011;25499;53.958;10.970;2023-10-09T09:46:05;6.72;;;4.32;;
39822;SDS011;25499;53.958;10.970;2023-10-09T09:48:37;6.63;;;4.20;;
39822;SDS011;25499;53.958;10.970;2023-10-09T09:51:10;6.97;;;4.50;;
39822;SDS011;25499;53.958;10.970;2023-10-09T09:53:40;7.85;;;4.95;;
39822;SDS011;25499;53.958;10.970;2023-10-09T09:56:07;8.38;;;4.55;;
39822;SDS011;25499;53.958;10.970;2023-10-09T09:58:43;9.80;;;5.13;;
39822;SDS011;25499;53.958;10.970;2023-10-09T10:01:18;8.43;;;4.93;;
39822;SDS011;25499;53.958;10.970;2023-10-09T10:03:51;8.85;;;5.70;;
39822;SDS011;25499;53.958;10.970;2023-10-09T10:06:22;11.10;;;5.60;;
39822;SDS011;25499;53.958;10.970;2023-10-09T10:08:52;6.95;;;5.32;;
39822;SDS011;25499;53.958;10.970;2023-10-09T10:14:11;11.80;;;6.80;;
39822;SDS011;25499;53.958;10.970;2023-10-09T10:17:03;10.05;;;5.13;;
39822;SDS011;25499;53.958;10.970;2023-10-09T10:22:48;8.60;;;5.20;;
39822;SDS011;25499;53.958;10.970;2023-10-09T10:25:32;10.20;;;5.60;;
39822;SDS011;25499;53.958;10.970;2023-10-09T10:28:16;7.57;;;5.72;;
39822;SDS011;25499;53.958;10.970;2023-10-09T10:31:04;8.10;;;5.63;;
39822;SDS011;25499;53.958;10.970;2023-10-09T10:36:32;6.65;;;4.93;;
39822;SDS011;25499;53.958;10.970;2023-10-09T10:39:00;7.63;;;5.05;;
39822;SDS011;25499;53.958;10.970;2023-10-09T10:41:35;7.88;;;5.00;;
39822;SDS011;25499;53.958;10.970;2023-10-09T10:44:23;7.43;;;5.45;;
39822;SDS011;25499;53.958;10.970;2023-10-09T10:47:03;9.50;;;5.90;;
39822;SDS011;25499;53.958;10.970;2023-10-09T10:49:30;9.52;;;5.80;;
39822;SDS011;25499;53.958;10.970;2023-10-09T10:52:03;7.28;;;5.13;;
39822;SDS011;25499;53.958;10.970;2023-10-09T10:54:43;8.68;;;5.05;;
39822;SDS011;25499;53.958;10.970;2023-10-09T10:57:18;8.82;;;5.80;;
39822;SDS011;25499;53.958;10.970;2023-10-09T10:59:54;5.90;;;4.90;;
39822;SDS011;25499;53.958;10.970;2023-10-09T11:02:41;8.43;;;5.05;;
39822;SDS011;25499;53.958;10.970;2023-10-09T11:05:13;6.50;;;4.85;;
39822;SDS011;25499;53.958;10.970;2023-10-09T11:07:49;8.25;;;4.75;;
39822;SDS011;25499;53.958;10.970;2023-10-09T11:10:22;8.27;;;4.88;;
39822;SDS011;25499;53.958;10.970;2023-10-09T11:12:57;8.23;;;5.10;;
39822;SDS011;25499;53.958;10.970;2023-10-09T11:15:40;5.53;;;4.13;;
39822;SDS011;25499;53.958;10.970;2023-10-09T11:18:13;5.43;;;4.47;;
39822;SDS011;25499;53.958;10.970;2023-10-09T11:20:45;9.35;;;4.43;;
39822;SDS011;25499;53.958;10.970;2023-10-09T11:23:43;5.85;;;4.00;;
39822;SDS011;25499;53.958;10.970;2023-10-09T11:26:23;7.80;;;3.83;;
39822;SDS011;25499;53.958;10.970;2023-10-09T11:29:09;6.78;;;3.97;;
39822;SDS011;25499;53.958;10.970;2023-10-09T11:31:41;5.25;;;4.43;;
39822;SDS011;25499;53.958;10.970;2023-10-09T11:34:21;5.03;;;4.10;;
39822;SDS011;25499;53.958;10.970;2023-10-09T11:36:58;7.00;;;3.92;;
39822;SDS011;25499;53.958;10.970;2023-10-09T11:39:26;5.93;;;4.25;;
39822;SDS011;25499;53.958;10.970;2023-10-09T11:42:17;7.85;;;4.07;;
39822;SDS011;25499;53.958;10.970;2023-10-09T11:45:00;4.00;;;3.45;;
39822;SDS011;25499;53.958;10.970;2023-10-09T11:47:45;5.22;;;3.65;;
39822;SDS011;25499;53.958;10.970;2023-10-09T11:53:19;4.72;;;2.92;;
39822;SDS011;25499;53.958;10.970;2023-10-09T11:55:58;4.50;;;3.53;;
39822;SDS011;25499;53.958;10.970;2023-10-09T11:58:26;5.43;;;3.22;;
39822;SDS011;25499;53.958;10.970;2023-10-09T12:00:53;3.97;;;3.25;;
39822;SDS011;25499;53.958;10.970;2023-10-09T12:03:25;4.72;;;3.83;;
39822;SDS011;25499;53.958;10.970;2023-10-09T12:05:57;6.97;;;4.15;;
39822;SDS011;25499;53.958;10.970;2023-10-09T12:08:29;5.35;;;4.05;;
39822;SDS011;25499;53.958;10.970;2023-10-09T12:10:57;6.05;;;4.05;;
39822;SDS011;25499;53.958;10.970;2023-10-09T12:13:24;5.80;;;4.30;;
39822;SDS011;25499;53.958;10.970;2023-10-09T12:15:51;5.35;;;3.75;;
39822;SDS011;25499;53.958;10.970;2023-10-09T12:18:19;4.25;;;3.40;;
39822;SDS011;25499;53.958;10.970;2023-10-09T12:20:49;6.25;;;3.60;;
39822;SDS011;25499;53.958;10.970;2023-10-09T12:23:28;5.22;;;2.90;;
39822;SDS011;25499;53.958;10.970;2023-10-09T12:26:00;4.03;;;3.17;;
39822;SDS011;25499;53.958;10.970;2023-10-09T12:28:28;4.68;;;3.35;;
39822;SDS011;25499;53.958;10.970;2023-10-09T12:30:58;4.55;;;3.33;;
39822;SDS011;25499;53.958;10.970;2023-10-09T12:33:28;4.68;;;3.33;;
39822;SDS011;25499;53.958;10.970;2023-10-09T12:35:55;4.75;;;3.47;;
39822;SDS011;25499;53.958;10.970;2023-10-09T12:38:25;6.68;;;4.25;;
39822;SDS011;25499;53.958;10.970;2023-10-09T12:41:01;4.28;;;3.67;;
39822;SDS011;25499;53.958;10.970;2023-10-09T12:43:33;4.80;;;3.60;;
39822;SDS011;25499;53.958;10.970;2023-10-09T12:46:04;8.68;;;3.25;;
39822;SDS011;25499;53.958;10.970;2023-10-09T12:48:32;4.80;;;3.25;;
39822;SDS011;25499;53.958;10.970;2023-10-09T12:50:59;6.78;;;3.40;;
39822;SDS011;25499;53.958;10.970;2023-10-09T12:53:31;3.90;;;3.50;;
39822;SDS011;25499;53.958;10.970;2023-10-09T12:55:58;5.57;;;3.28;;
39822;SDS011;25499;53.958;10.970;2023-10-09T12:58:27;3.78;;;2.88;;
39822;SDS011;25499;53.958;10.970;2023-10-09T13:00:53;4.78;;;3.25;;
39822;SDS011;25499;53.958;10.970;2023-10-09T13:03:21;6.50;;;4.10;;
39822;SDS011;25499;53.958;10.970;2023-10-09T13:05:53;6.60;;;3.88;;
39822;SDS011;25499;53.958;10.970;2023-10-09T13:08:21;4.03;;;3.58;;
39822;SDS011;25499;53.958;10.970;2023-10-09T13:10:50;5.10;;;4.00;;
39822;SDS011;25499;53.958;10.970;2023-10-09T13:13:28;4.93;;;3.47;;
39822;SDS011;25499;53.958;10.970;2023-10-09T13:16:05;4.10;;;3.60;;
39822;SDS011;25499;53.958;10.970;2023-10-09T13:18:34;5.22;;;3.85;;
39822;SDS011;25499;53.958;10.970;2023-10-09T13:21:02;4.40;;;3.50;;
39822;SDS011;25499;53.958;10.970;2023-10-09T13:23:30;4.75;;;3.40;;
39822;SDS011;25499;53.958;10.970;2023-10-09T13:26:04;5.45;;;3.53;;
39822;SDS011;25499;53.958;10.970;2023-10-09T13:28:45;4.95;;;3.50;;
39822;SDS011;25499;53.958;10.970;2023-10-09T13:31:12;5.18;;;3.08;;
39822;SDS011;25499;53.958;10.970;2023-10-09T13:33:40;3.97;;;3.30;;
39822;SDS011;25499;53.958;10.970;2023-10-09T13:36:08;3.97;;;3.58;;
39822;SDS011;25499;53.958;10.970;2023-10-09T13:38:42;3.88;;;3.33;;
39822;SDS011;25499;53.958;10.970;2023-10-09T13:41:09;5.72;;;3.53;;
39822;SDS011;25499;53.958;10.970;2023-10-09T13:43:38;4.68;;;3.35;;
39822;SDS011;25499;53.958;10.970;2023-10-09T13:46:07;5.03;;;3.60;;
39822;SDS011;25499;53.958;10.970;2023-10-09T13:48:36;3.67;;;3.38;;
39822;SDS011;25499;53.958;10.970;2023-10-09T13:51:06;4.72;;;3.45;;
39822;SDS011;25499;53.958;10.970;2023-10-09T13:53:39;5.50;;;3.42;;
39822;SDS011;25499;53.958;10.970;2023-10-09T13:56:10;4.10;;;3.70;;
39822;SDS011;25499;53.958;10.970;2023-10-09T13:58:40;3.77;;;3.33;;
39822;SDS011;25499;53.958;10.970;2023-10-09T14:01:09;6.75;;;3.60;;
39822;SDS011;25499;53.958;10.970;2023-10-09T14:03:36;5.80;;;3.50;;
39822;SDS011;25499;53.958;10.970;2023-10-09T14:06:04;5.90;;;3.60;;
39822;SDS011;25499;53.958;10.970;2023-10-09T14:08:37;5.30;;;4.05;;
39822;SDS011;25499;53.958;10.970;2023-10-09T14:11:07;5.95;;;3.70;;
39822;SDS011;25499;53.958;10.970;2023-10-09T14:13:38;3.90;;;3.50;;
39822;SDS011;25499;53.958;10.970;2023-10-09T14:16:05;4.70;;;3.55;;
39822;SDS011;25499;53.958;10.970;2023-10-09T14:18:47;4.10;;;3.70;;
39822;SDS011;25499;53.958;10.970;2023-10-09T14:21:19;6.10;;;3.60;;
39822;SDS011;25499;53.958;10.970;2023-10-09T14:23:47;4.65;;;3.88;;
39822;SDS011;25499;53.958;10.970;2023-10-09T14:26:14;5.47;;;3.60;;
39822;SDS011;25499;53.958;10.970;2023-10-09T14:28:43;6.35;;;4.03;;
39822;SDS011;25499;53.958;10.970;2023-10-09T14:31:11;6.63;;;3.92;;
39822;SDS011;25499;53.958;10.970;2023-10-09T14:33:39;6.57;;;4.40;;
39822;SDS011;25499;53.958;10.970;2023-10-09T14:36:09;5.78;;;3.83;;
39822;SDS011;25499;53.958;10.970;2023-10-09T14:38:39;4.90;;;3.88;;
39822;SDS011;25499;53.958;10.970;2023-10-09T14:41:07;5.70;;;4.22;;
39822;SDS011;25499;53.958;10.970;2023-10-09T14:43:36;8.77;;;4.05;;
39822;SDS011;25499;53.958;10.970;2023-10-09T14:46:04;5.85;;;4.30;;
39822;SDS011;25499;53.958;10.970;2023-10-09T14:48:36;6.20;;;4.30;;
39822;SDS011;25499;53.958;10.970;2023-10-09T14:51:04;5.30;;;3.97;;
39822;SDS011;25499;53.958;10.970;2023-10-09T14:53:33;5.25;;;4.25;;
39822;SDS011;25499;53.958;10.970;2023-10-09T14:56:00;9.77;;;4.90;;
39822;SDS011;25499;53.958;10.970;2023-10-09T14:58:28;5.78;;;5.18;;
39822;SDS011;25499;53.958;10.970;2023-10-09T15:01:06;7.00;;;4.80;;
39822;SDS011;25499;53.958;10.970;2023-10-09T15:03:37;6.63;;;4.60;;
39822;SDS011;25499;53.958;10.970;2023-10-09T15:06:04;5.13;;;4.45;;
39822;SDS011;25499;53.958;10.970;2023-10-09T15:08:37;6.65;;;4.85;;
39822;SDS011;25499;53.958;10.970;2023-10-09T15:11:06;8.20;;;5.07;;
39822;SDS011;25499;53.958;10.970;2023-10-09T15:13:33;6.78;;;5.05;;
39822;SDS011;25499;53.958;10.970;2023-10-09T15:16:04;6.82;;;5.30;;
39822;SDS011;25499;53.958;10.970;2023-10-09T15:18:31;6.65;;;5.80;;
39822;SDS011;25499;53.958;10.970;2023-10-09T15:20:59;8.05;;;5.18;;
39822;SDS011;25499;53.958;10.970;2023-10-09T15:23:26;9.05;;;5.72;;
39822;SDS011;25499;53.958;10.970;2023-10-09T15:25:55;6.90;;;5.60;;
39822;SDS011;25499;53.958;10.970;2023-10-09T15:28:22;7.80;;;5.90;;
39822;SDS011;25499;53.958;10.970;2023-10-09T15:30:50;6.13;;;5.53;;
39822;SDS011;25499;53.958;10.970;2023-10-09T15:33:17;7.00;;;6.30;;
39822;SDS011;25499;53.958;10.970;2023-10-09T15:35:44;8.38;;;6.20;;
39822;SDS011;25499;53.958;10.970;2023-10-09T15:38:12;7.43;;;6.47;;
39822;SDS011;25499;53.958;10.970;2023-10-09T15:40:39;9.88;;;7.95;;
39822;SDS011;25499;53.958;10.970;2023-10-09T15:43:10;10.60;;;6.78;;
39822;SDS011;25499;53.958;10.970;2023-10-09T15:45:43;9.73;;;7.00;;
39822;SDS011;25499;53.958;10.970;2023-10-09T15:48:13;9.60;;;7.22;;
39822;SDS011;25499;53.958;10.970;2023-10-09T15:50:44;9.52;;;6.72;;
39822;SDS011;25499;53.958;10.970;2023-10-09T15:53:13;11.32;;;7.63;;
39822;SDS011;25499;53.958;10.970;2023-10-09T15:55:42;8.70;;;6.88;;
39822;SDS011;25499;53.958;10.970;2023-10-09T15:58:11;9.68;;;7.53;;
39822;SDS011;25499;53.958;10.970;2023-10-09T16:00:38;8.13;;;6.72;;
39822;SDS011;25499;53.958;10.970;2023-10-09T16:03:05;6.65;;;5.50;;
39822;SDS011;25499;53.958;10.970;2023-10-09T16:05:35;7.40;;;5.10;;
39822;SDS011;25499;53.958;10.970;2023-10-09T16:08:02;6.50;;;5.10;;
39822;SDS011;25499;53.958;10.970;2023-10-09T16:10:30;6.18;;;5.45;;
39822;SDS011;25499;53.958;10.970;2023-10-09T16:12:57;7.18;;;5.20;;
39822;SDS011;25499;53.958;10.970;2023-10-09T16:15:27;6.50;;;5.10;;
39822;SDS011;25499;53.958;10.970;2023-10-09T16:17:54;7.43;;;5.55;;
39822;SDS011;25499;53.958;10.970;2023-10-09T16:20:28;6.32;;;5.72;;
39822;SDS011;25499;53.958;10.970;2023-10-09T16:22:57;6.60;;;5.75;;
39822;SDS011;25499;53.958;10.970;2023-10-09T16:25:24;7.07;;;5.90;;
39822;SDS011;25499;53.958;10.970;2023-10-09T16:27:52;7.75;;;5.45;;
39822;SDS011;25499;53.958;10.970;2023-10-09T16:30:21;6.45;;;5.72;;
39822;SDS011;25499;53.958;10.970;2023-10-09T16:32:49;8.38;;;5.53;;
39822;SDS011;25499;53.958;10.970;2023-10-09T16:35:17;7.82;;;5.50;;
39822;SDS011;25499;53.958;10.970;2023-10-09T16:37:47;8.05;;;6.13;;
39822;SDS011;25499;53.958;10.970;2023-10-09T16:40:14;7.45;;;6.07;;
39822;SDS011;25499;53.958;10.970;2023-10-09T16:42:45;6.93;;;5.45;;
39822;SDS011;25499;53.958;10.970;2023-10-09T16:45:14;6.30;;;5.22;;
39822;SDS011;25499;53.958;10.970;2023-10-09T16:47:44;7.32;;;5.72;;
39822;SDS011;25499;53.958;10.970;2023-10-09T16:50:13;6.28;;;5.68;;
39822;SDS011;25499;53.958;10.970;2023-10-09T16:52:42;7.50;;;5.55;;
39822;SDS011;25499;53.958;10.970;2023-10-09T16:55:09;8.43;;;6.30;;
39822;SDS011;25499;53.958;10.970;2023-10-09T16:57:37;7.88;;;6.47;;
39822;SDS011;25499;53.958;10.970;2023-10-09T17:00:07;7.30;;;6.13;;
39822;SDS011;25499;53.958;10.970;2023-10-09T17:02:43;7.68;;;6.13;;
39822;SDS011;25499;53.958;10.970;2023-10-09T17:05:13;7.47;;;6.03;;
39822;SDS011;25499;53.958;10.970;2023-10-09T17:07:41;8.00;;;5.88;;
39822;SDS011;25499;53.958;10.970;2023-10-09T17:10:10;6.53;;;5.30;;
39822;SDS011;25499;53.958;10.970;2023-10-09T17:12:41;6.18;;;5.05;;
39822;SDS011;25499;53.958;10.970;2023-10-09T17:15:11;6.80;;;4.63;;
39822;SDS011;25499;53.958;10.970;2023-10-09T17:17:41;5.25;;;4.50;;
39822;SDS011;25499;53.958;10.970;2023-10-09T17:20:16;7.43;;;4.95;;
39822;SDS011;25499;53.958;10.970;2023-10-09T17:22:43;5.97;;;5.10;;
39822;SDS011;25499;53.958;10.970;2023-10-09T17:25:11;6.95;;;5.03;;
39822;SDS011;25499;53.958;10.970;2023-10-09T17:27:39;8.48;;;4.90;;
39822;SDS011;25499;53.958;10.970;2023-10-09T17:30:07;6.68;;;5.15;;
39822;SDS011;25499;53.958;10.970;2023-10-09T17:32:34;5.57;;;4.97;;
39822;SDS011;25499;53.958;10.970;2023-10-09T17:35:02;8.13;;;5.13;;
39822;SDS011;25499;53.958;10.970;2023-10-09T17:37:35;6.95;;;5.03;;
39822;SDS011;25499;53.958;10.970;2023-10-09T17:40:05;8.18;;;5.20;;
39822;SDS011;25499;53.958;10.970;2023-10-09T17:42:33;14.10;;;9.20;;
39822;SDS011;25499;53.958;10.970;2023-10-09T17:45:00;10.95;;;8.70;;
39822;SDS011;25499;53.958;10.970;2023-10-09T17:47:30;19.70;;;12.13;;
39822;SDS011;25499;53.958;10.970;2023-10-09T17:50:00;23.52;;;14.40;;
39822;SDS011;25499;53.958;10.970;2023-10-09T17:52:27;16.52;;;10.85;;
39822;SDS011;25499;53.958;10.970;2023-10-09T17:54:56;12.32;;;8.40;;
39822;SDS011;25499;53.958;10.970;2023-10-09T17:57:26;10.60;;;7.43;;
39822;SDS011;25499;53.958;10.970;2023-10-09T17:59:53;8.30;;;5.97;;
39822;SDS011;25499;53.958;10.970;2023-10-09T18:02:21;6.43;;;5.32;;
39822;SDS011;25499;53.958;10.970;2023-10-09T18:04:48;7.10;;;5.90;;
39822;SDS011;25499;53.958;10.970;2023-10-09T18:07:15;6.72;;;5.60;;
39822;SDS011;25499;53.958;10.970;2023-10-09T18:09:44;7.20;;;5.53;;
39822;SDS011;25499;53.958;10.970;2023-10-09T18:12:18;7.97;;;6.72;;
39822;SDS011;25499;53.958;10.970;2023-10-09T18:14:47;8.82;;;7.40;;
39822;SDS011;25499;53.958;10.970;2023-10-09T18:17:17;14.40;;;7.38;;
39822;SDS011;25499;53.958;10.970;2023-10-09T18:19:45;7.40;;;6.10;;
39822;SDS011;25499;53.958;10.970;2023-10-09T18:22:13;6.10;;;5.25;;
39822;SDS011;25499;53.958;10.970;2023-10-09T18:24:40;6.57;;;5.15;;
39822;SDS011;25499;53.958;10.970;2023-10-09T18:27:07;5.22;;;4.63;;
39822;SDS011;25499;53.958;10.970;2023-10-09T18:29:38;5.82;;;4.72;;
39822;SDS011;25499;53.958;10.970;2023-10-09T18:32:05;5.95;;;5.10;;
39822;SDS011;25499;53.958;10.970;2023-10-09T18:34:32;5.60;;;5.00;;
39822;SDS011;25499;53.958;10.970;2023-10-09T18:36:59;6.68;;;5.22;;
39822;SDS011;25499;53.958;10.970;2023-10-09T18:39:26;7.57;;;5.63;;
39822;SDS011;25499;53.958;10.970;2023-10-09T18:41:55;6.60;;;4.95;;
39822;SDS011;25499;53.958;10.970;2023-10-09T18:44:22;5.43;;;4.93;;
39822;SDS011;25499;53.958;10.970;2023-10-09T18:46:51;6.45;;;5.07;;
39822;SDS011;25499;53.958;10.970;2023-10-09T18:49:19;7.35;;;4.95;;
39822;SDS011;25499;53.958;10.970;2023-10-09T18:51:46;7.30;;;5.20;;
39822;SDS011;25499;53.958;10.970;2023-10-09T18:54:13;8.20;;;5.75;;
39822;SDS011;25499;53.958;10.970;2023-10-09T18:56:40;6.50;;;5.50;;
39822;SDS011;25499;53.958;10.970;2023-10-09T18:59:08;9.55;;;6.32;;
39822;SDS011;25499;53.958;10.970;2023-10-09T19:01:35;10.38;;;6.70;;
39822;SDS011;25499;53.958;10.970;2023-10-09T19:04:04;8.52;;;6.72;;
39822;SDS011;25499;53.958;10.970;2023-10-09T19:06:33;8.93;;;6.95;;
39822;SDS011;25499;53.958;10.970;2023-10-09T19:09:02;10.15;;;7.57;;
39822;SDS011;25499;53.958;10.970;2023-10-09T19:11:30;14.45;;;8.98;;
39822;SDS011;25499;53.958;10.970;2023-10-09T19:13:57;14.15;;;8.70;;
39822;SDS011;25499;53.958;10.970;2023-10-09T19:16:25;12.93;;;8.88;;
39822;SDS011;25499;53.958;10.970;2023-10-09T19:18:54;12.02;;;8.38;;
39822;SDS011;25499;53.958;10.970;2023-10-09T19:21:31;15.93;;;9.63;;
39822;SDS011;25499;53.958;10.970;2023-10-09T19:23:59;13.13;;;9.13;;
39822;SDS011;25499;53.958;10.970;2023-10-09T19:26:31;13.20;;;9.15;;
39822;SDS011;25499;53.958;10.970;2023-10-09T19:28:59;17.90;;;11.05;;
39822;SDS011;25499;53.958;10.970;2023-10-09T19:31:26;16.13;;;10.80;;
39822;SDS011;25499;53.958;10.970;2023-10-09T19:33:57;14.70;;;11.07;;
39822;SDS011;25499;53.958;10.970;2023-10-09T19:36:24;18.85;;;11.15;;
39822;SDS011;25499;53.958;10.970;2023-10-09T19:38:53;14.98;;;10.75;;
39822;SDS011;25499;53.958;10.970;2023-10-09T19:41:21;20.77;;;12.18;;
39822;SDS011;25499;53.958;10.970;2023-10-09T19:43:49;15.18;;;11.25;;
39822;SDS011;25499;53.958;10.970;2023-10-09T19:46:17;16.02;;;10.77;;
39822;SDS011;25499;53.958;10.970;2023-10-09T19:48:44;16.55;;;11.07;;
39822;SDS011;25499;53.958;10.970;2023-10-09T19:51:12;16.00;;;11.05;;
